Terminal Aerodrome Forecast
Issued by NWS

Home | Current Version | Previous Version | Text Only | Print | Product List | Glossary On
Versions: 1 2 3 4 5 6 7 8 9 10 11 12 13 14 15 16 17 18 19 20 21 22 23 24 25
581
FTUS43 KGRR 052351
TAFJXN
TAF
KJXN 052351Z 0600/0624 25006KT 5SM -SN OVC035
      TEMPO 0600/0603 OVC025
     FM060300 27005KT P6SM BKN030
     FM060600 24007KT P6SM SCT030 OVC100
     FM061400 23011KT P6SM -SN OVC030=

USA.gov is the U.S. government's official web portal to all federal, state and local government web resources and services.